Time;durP1;ratioP1;P1;durP2;ratioP2;P2;SDS_P1;SDS_P2;PMS_P1;PMS_P2;Temp;Humidity;BMP_temperature;BMP_pressure;BME280_temperature;BME280_humidity;BME280_pressure;Samples;Min_cycle;Max_cycle;Signal;HPM_P1;HPM_P2
2022/03/30 00:01:06;;;;;;;9.23;3.63;;;;;;;;;;4886087;29;20066;-67
2022/03/30 00:03:37;;;;;;;15.32;3.85;;;;;;;;;;4933492;29;20554;-66
2022/03/30 00:06:08;;;;;;;12.23;3.85;;;;;;;;;;4949044;28;20055;-67
2022/03/30 00:08:42;;;;;;;8.95;3.20;;;;;;;;;;4952382;28;20058;-67
2022/03/30 00:11:13;;;;;;;12.63;3.60;;;;;;;;;;4962710;28;20063;-67
2022/03/30 00:13:44;;;;;;;9.40;3.85;;;;;;;;;;4952184;28;20059;-67
2022/03/30 00:16:15;;;;;;;15.38;3.85;;;;;;;;;;4952084;28;20074;-67
2022/03/30 00:18:46;;;;;;;10.55;3.63;;;;;;;;;;4973684;28;20050;-66
2022/03/30 00:21:19;;;;;;;9.82;4.03;;;;;;;;;;4991048;28;20054;-67
2022/03/30 00:23:50;;;;;;;10.65;3.40;;;;;;;;;;4980074;28;20055;-67
2022/03/30 00:26:21;;;;;;;9.80;3.13;;;;;;;;;;4971483;28;20062;-67
2022/03/30 00:28:52;;;;;;;9.80;3.47;;;;;;;;;;4971816;28;20054;-66
2022/03/30 00:31:23;;;;;;;11.02;3.97;;;;;;;;;;4971562;28;20066;-65
2022/03/30 00:33:53;;;;;;;10.10;4.00;;;;;;;;;;4982691;28;20062;-66
2022/03/30 00:36:24;;;;;;;19.05;4.43;;;;;;;;;;4974827;28;20046;-66
2022/03/30 00:38:55;;;;;;;12.00;3.70;;;;;;;;;;4958478;28;20070;-66
2022/03/30 00:41:28;;;;;;;14.75;4.22;;;;;;;;;;4990733;28;20058;-66
2022/03/30 00:43:58;;;;;;;9.10;4.20;;;;;;;;;;4990938;28;20054;-66
2022/03/30 00:46:29;;;;;;;8.40;3.72;;;;;;;;;;4979868;28;20066;-66
2022/03/30 00:49:02;;;;;;;9.52;3.63;;;;;;;;;;4939028;28;20061;-66
2022/03/30 00:51:33;;;;;;;10.77;3.80;;;;;;;;;;4993414;28;20062;-66
2022/03/30 00:54:04;;;;;;;9.05;3.90;;;;;;;;;;5021147;28;20049;-66
2022/03/30 00:56:39;;;;;;;11.50;3.95;;;;;;;;;;5009689;28;20056;-66
2022/03/30 00:59:11;;;;;;;11.98;3.80;;;;;;;;;;5010099;28;20534;-66
2022/03/30 01:01:41;;;;;;;17.83;4.63;;;;;;;;;;5009864;28;20058;-66
2022/03/30 01:04:13;;;;;;;15.73;3.78;;;;;;;;;;5009423;28;20076;-66
2022/03/30 01:06:44;;;;;;;13.93;3.85;;;;;;;;;;5010165;28;20512;-66
2022/03/30 01:09:14;;;;;;;15.15;4.07;;;;;;;;;;5010227;28;20062;-65
2022/03/30 01:11:46;;;;;;;16.95;3.70;;;;;;;;;;4993926;28;20061;-66
2022/03/30 01:14:17;;;;;;;9.63;3.35;;;;;;;;;;5009955;28;20060;-65
2022/03/30 01:16:48;;;;;;;16.73;4.40;;;;;;;;;;4993904;28;20052;-66
2022/03/30 01:19:20;;;;;;;9.82;4.00;;;;;;;;;;5022054;28;20068;-66
2022/03/30 01:21:51;;;;;;;12.93;4.05;;;;;;;;;;5029385;28;20465;-66
2022/03/30 01:24:22;;;;;;;10.63;3.50;;;;;;;;;;5029523;28;20062;-67
2022/03/30 01:26:53;;;;;;;12.75;4.32;;;;;;;;;;5029496;28;20416;-66
2022/03/30 01:32:25;;;;;;;11.98;4.00;;;;;;;;;;5001264;28;20062;-65
2022/03/30 01:35:01;;;;;;;13.93;3.80;;;;;;;;;;5021041;28;20049;-66
2022/03/30 01:37:33;;;;;;;14.48;3.58;;;;;;;;;;5029060;28;20087;-66
2022/03/30 01:40:05;;;;;;;14.27;3.80;;;;;;;;;;5029132;28;20056;-66
2022/03/30 01:42:36;;;;;;;9.02;3.67;;;;;;;;;;4996499;28;20149;-66
2022/03/30 01:45:08;;;;;;;15.10;4.03;;;;;;;;;;5029411;28;20065;-65
2022/03/30 01:47:40;;;;;;;9.65;3.72;;;;;;;;;;4980190;28;20053;-65
2022/03/30 01:50:11;;;;;;;8.80;3.58;;;;;;;;;;5012783;28;20053;-65
2022/03/30 01:52:41;;;;;;;11.18;3.55;;;;;;;;;;5048565;28;20045;-66
2022/03/30 01:55:12;;;;;;;15.77;4.63;;;;;;;;;;4999464;28;20056;-66
2022/03/30 01:57:43;;;;;;;12.98;3.80;;;;;;;;;;5028771;28;20121;-65
2022/03/30 02:00:16;;;;;;;13.75;4.57;;;;;;;;;;5029083;28;20054;-65
2022/03/30 02:02:47;;;;;;;10.50;4.40;;;;;;;;;;5008850;28;20453;-66
2022/03/30 02:05:18;;;;;;;14.48;3.60;;;;;;;;;;4954052;28;20050;-67
2022/03/30 02:07:49;;;;;;;13.00;3.40;;;;;;;;;;4986087;28;20065;-66
2022/03/30 02:10:20;;;;;;;9.40;3.75;;;;;;;;;;4989445;28;20050;-66
2022/03/30 02:12:51;;;;;;;13.00;5.05;;;;;;;;;;4989910;28;20426;-66
2022/03/30 02:15:22;;;;;;;11.40;3.67;;;;;;;;;;4951601;28;20051;-66
2022/03/30 02:17:53;;;;;;;8.35;3.33;;;;;;;;;;4907511;28;20059;-66
2022/03/30 02:20:24;;;;;;;10.25;3.28;;;;;;;;;;4935285;29;20062;-66
2022/03/30 02:22:54;;;;;;;13.18;3.42;;;;;;;;;;4935360;29;20060;-66
2022/03/30 02:25:26;;;;;;;11.52;3.75;;;;;;;;;;4935727;29;20067;-66
2022/03/30 02:27:57;;;;;;;13.13;3.63;;;;;;;;;;4935486;29;20072;-66
2022/03/30 02:30:28;;;;;;;9.60;3.90;;;;;;;;;;4914888;29;20098;-66
2022/03/30 02:33:00;;;;;;;10.43;3.53;;;;;;;;;;4897414;29;20060;-66
2022/03/30 02:35:31;;;;;;;15.15;4.43;;;;;;;;;;4918632;29;20059;-67
2022/03/30 02:38:02;;;;;;;7.78;3.47;;;;;;;;;;4950620;28;20074;-67
2022/03/30 02:40:33;;;;;;;15.27;4.40;;;;;;;;;;4953851;28;20484;-66
2022/03/30 02:43:04;;;;;;;10.07;4.43;;;;;;;;;;4964789;28;20066;-66
2022/03/30 02:45:35;;;;;;;11.20;3.88;;;;;;;;;;4973337;28;20055;-66
2022/03/30 02:48:18;;;;;;;7.47;3.80;;;;;;;;;;4992635;28;20062;-66
2022/03/30 02:50:54;;;;;;;9.07;4.07;;;;;;;;;;4961077;28;20415;-66
2022/03/30 02:53:26;;;;;;;10.98;3.78;;;;;;;;;;4938286;29;20099;-67
2022/03/30 02:55:56;;;;;;;9.40;3.53;;;;;;;;;;4934382;29;20059;-67
2022/03/30 02:58:27;;;;;;;11.02;4.20;;;;;;;;;;4902805;29;20056;-66
2022/03/30 03:00:59;;;;;;;17.40;3.83;;;;;;;;;;4918504;29;20048;-67
2022/03/30 03:03:29;;;;;;;7.38;3.95;;;;;;;;;;4934627;29;20544;-66
2022/03/30 03:06:00;;;;;;;13.65;3.67;;;;;;;;;;4934640;29;20070;-66
2022/03/30 03:08:31;;;;;;;12.82;4.10;;;;;;;;;;4934705;29;20056;-66
2022/03/30 03:11:02;;;;;;;11.05;4.30;;;;;;;;;;4919082;29;20052;-66
2022/03/30 03:13:32;;;;;;;12.13;4.03;;;;;;;;;;4934854;29;20068;-66
2022/03/30 03:16:03;;;;;;;12.10;3.92;;;;;;;;;;4894173;29;20064;-67
2022/03/30 03:18:35;;;;;;;8.48;3.58;;;;;;;;;;4896547;29;20060;-67
2022/03/30 03:21:06;;;;;;;14.32;4.15;;;;;;;;;;4896733;29;20528;-66
2022/03/30 03:23:37;;;;;;;12.95;3.80;;;;;;;;;;4908672;29;20059;-66
2022/03/30 03:26:08;;;;;;;11.88;3.85;;;;;;;;;;4939709;28;20063;-66
2022/03/30 03:28:38;;;;;;;14.93;4.65;;;;;;;;;;4937796;29;20043;-66
2022/03/30 03:31:10;;;;;;;11.45;4.03;;;;;;;;;;4940382;28;20594;-66
2022/03/30 03:33:40;;;;;;;10.40;4.63;;;;;;;;;;4972619;28;20415;-66
2022/03/30 03:36:10;;;;;;;9.52;3.92;;;;;;;;;;4972860;28;20050;-66
2022/03/30 03:38:41;;;;;;;8.15;3.80;;;;;;;;;;4993351;28;20479;-66
2022/03/30 03:41:12;;;;;;;10.90;3.55;;;;;;;;;;4962658;28;20077;-66
2022/03/30 03:43:43;;;;;;;9.90;3.47;;;;;;;;;;5011603;28;20706;-67
2022/03/30 03:46:13;;;;;;;7.78;3.13;;;;;;;;;;5011330;28;20061;-66
2022/03/30 03:48:44;;;;;;;10.68;4.03;;;;;;;;;;5011643;28;20056;-66
2022/03/30 03:51:15;;;;;;;13.70;4.45;;;;;;;;;;4995302;28;20490;-67
2022/03/30 03:53:46;;;;;;;8.88;4.63;;;;;;;;;;5011371;28;20061;-66
2022/03/30 03:56:16;;;;;;;8.65;4.13;;;;;;;;;;4978912;28;20130;-66
2022/03/30 03:58:49;;;;;;;12.00;3.83;;;;;;;;;;5011595;28;20058;-66
2022/03/30 04:01:20;;;;;;;10.88;5.57;;;;;;;;;;5011423;28;20453;-66
2022/03/30 04:03:51;;;;;;;12.77;4.93;;;;;;;;;;5010807;28;20426;-66
2022/03/30 04:06:21;;;;;;;12.13;4.30;;;;;;;;;;5021738;28;20161;-67
2022/03/30 04:08:54;;;;;;;11.10;3.97;;;;;;;;;;4982144;28;20072;-67
2022/03/30 04:11:25;;;;;;;8.43;4.10;;;;;;;;;;4998533;28;20057;-66
2022/03/30 04:13:56;;;;;;;9.60;3.72;;;;;;;;;;5010874;28;20502;-66
2022/03/30 04:16:26;;;;;;;8.65;4.45;;;;;;;;;;5010876;28;20058;-66
2022/03/30 04:18:57;;;;;;;13.65;4.53;;;;;;;;;;4982382;28;20094;-66
2022/03/30 04:21:28;;;;;;;12.27;3.97;;;;;;;;;;4990739;28;20042;-66
2022/03/30 04:23:58;;;;;;;8.63;4.55;;;;;;;;;;4927545;28;20050;-66
2022/03/30 04:26:28;;;;;;;10.85;5.20;;;;;;;;;;4975049;28;20054;-67
2022/03/30 04:28:59;;;;;;;11.90;4.93;;;;;;;;;;4991381;28;20098;-66
2022/03/30 04:31:30;;;;;;;10.73;5.03;;;;;;;;;;4990925;28;20055;-67
2022/03/30 04:34:00;;;;;;;11.05;5.47;;;;;;;;;;4990977;28;20058;-67
2022/03/30 04:36:31;;;;;;;8.60;4.93;;;;;;;;;;4991170;28;20061;-66
2022/03/30 04:39:01;;;;;;;10.02;5.30;;;;;;;;;;4990226;28;20403;-66
2022/03/30 04:41:32;;;;;;;12.52;4.28;;;;;;;;;;4990819;28;20073;-67
2022/03/30 04:44:03;;;;;;;10.05;4.05;;;;;;;;;;4951948;28;20047;-66
2022/03/30 04:46:34;;;;;;;9.60;4.00;;;;;;;;;;4951995;28;20518;-66
2022/03/30 04:49:05;;;;;;;12.27;4.45;;;;;;;;;;4953598;28;20207;-66
2022/03/30 04:51:36;;;;;;;12.25;3.85;;;;;;;;;;4961303;28;20063;-66
2022/03/30 04:54:07;;;;;;;12.20;4.53;;;;;;;;;;4987161;28;20056;-66
2022/03/30 04:56:38;;;;;;;10.43;4.03;;;;;;;;;;4971445;28;20063;-66
2022/03/30 04:59:08;;;;;;;12.65;4.45;;;;;;;;;;4991125;28;20049;-67
2022/03/30 05:01:39;;;;;;;10.52;4.50;;;;;;;;;;4961721;28;20490;-67
2022/03/30 05:04:10;;;;;;;15.13;4.20;;;;;;;;;;5010084;28;20057;-66
2022/03/30 05:06:41;;;;;;;9.50;4.05;;;;;;;;;;5009895;28;20682;-66
2022/03/30 05:09:12;;;;;;;10.32;3.97;;;;;;;;;;5010207;28;20068;-67
2022/03/30 05:11:43;;;;;;;8.82;4.22;;;;;;;;;;5009900;28;20510;-67
2022/03/30 05:14:14;;;;;;;9.32;4.55;;;;;;;;;;4977550;28;20615;-66
2022/03/30 05:16:44;;;;;;;9.20;4.13;;;;;;;;;;5010001;28;20057;-66
2022/03/30 05:19:15;;;;;;;12.27;4.70;;;;;;;;;;4977524;28;20413;-66
2022/03/30 05:21:46;;;;;;;10.18;4.00;;;;;;;;;;5030744;28;20049;-66
2022/03/30 05:24:17;;;;;;;7.65;4.00;;;;;;;;;;5017077;28;20064;-66
2022/03/30 05:26:47;;;;;;;10.25;4.22;;;;;;;;;;5049411;28;20061;-66
2022/03/30 05:29:17;;;;;;;12.38;4.25;;;;;;;;;;5049376;28;20053;-66
2022/03/30 05:31:48;;;;;;;8.43;3.67;;;;;;;;;;4979414;28;20054;-66
2022/03/30 05:34:39;;;;;;;16.40;4.78;;;;;;;;;;5022956;28;20580;-66
2022/03/30 05:37:10;;;;;;;10.77;3.78;;;;;;;;;;5009659;28;20538;-67
2022/03/30 05:39:41;;;;;;;9.45;4.43;;;;;;;;;;5009686;28;20065;-66
2022/03/30 05:42:15;;;;;;;17.08;3.80;;;;;;;;;;4992934;28;20054;-67
2022/03/30 05:44:46;;;;;;;8.07;4.40;;;;;;;;;;4995867;28;20050;-67
2022/03/30 05:47:16;;;;;;;11.63;3.92;;;;;;;;;;4989692;28;20126;-67
2022/03/30 05:49:47;;;;;;;7.85;3.45;;;;;;;;;;4989226;28;20051;-66
2022/03/30 05:52:17;;;;;;;12.25;3.90;;;;;;;;;;4989735;28;20055;-67
2022/03/30 05:54:48;;;;;;;8.27;4.07;;;;;;;;;;4989870;28;20422;-67
2022/03/30 05:57:21;;;;;;;9.05;3.63;;;;;;;;;;4989463;28;20062;-67
2022/03/30 05:59:52;;;;;;;9.15;4.65;;;;;;;;;;5017891;28;20593;-66
2022/03/30 06:02:22;;;;;;;10.93;3.83;;;;;;;;;;5012507;28;20057;-67
2022/03/30 06:04:53;;;;;;;10.93;3.60;;;;;;;;;;5008558;28;20147;-67
2022/03/30 06:07:25;;;;;;;11.77;4.03;;;;;;;;;;4992488;28;20050;-66
2022/03/30 06:09:55;;;;;;;8.40;4.05;;;;;;;;;;4993094;28;20069;-66
2022/03/30 06:12:26;;;;;;;11.43;3.75;;;;;;;;;;4922191;28;20090;-67
2022/03/30 06:14:56;;;;;;;10.13;3.58;;;;;;;;;;4970238;28;20074;-67
2022/03/30 06:17:30;;;;;;;8.23;3.60;;;;;;;;;;4946716;28;20055;-66
2022/03/30 06:20:03;;;;;;;9.10;3.47;;;;;;;;;;4916371;29;20071;-67
2022/03/30 06:22:36;;;;;;;10.07;3.80;;;;;;;;;;4912068;29;20052;-66
2022/03/30 06:25:07;;;;;;;7.55;3.40;;;;;;;;;;4912513;29;20071;-67
2022/03/30 06:27:40;;;;;;;7.85;3.72;;;;;;;;;;4912435;29;20562;-67
2022/03/30 06:30:11;;;;;;;6.32;3.47;;;;;;;;;;4912547;29;20056;-67
2022/03/30 06:32:42;;;;;;;10.40;3.75;;;;;;;;;;4912558;29;20460;-67
2022/03/30 06:35:13;;;;;;;10.48;4.18;;;;;;;;;;4912288;29;20401;-67
2022/03/30 06:37:44;;;;;;;9.25;3.10;;;;;;;;;;4865730;29;20059;-67
2022/03/30 06:40:17;;;;;;;7.55;3.42;;;;;;;;;;4880966;29;20048;-67
2022/03/30 06:42:48;;;;;;;7.30;3.72;;;;;;;;;;4900740;29;20057;-67
2022/03/30 06:45:18;;;;;;;7.85;4.05;;;;;;;;;;4893132;29;20389;-67
2022/03/30 06:47:49;;;;;;;7.60;3.42;;;;;;;;;;4893598;29;20181;-67
2022/03/30 06:50:20;;;;;;;5.85;3.53;;;;;;;;;;4900110;29;20127;-66
2022/03/30 06:52:51;;;;;;;7.97;3.40;;;;;;;;;;4931416;29;20064;-67
2022/03/30 06:55:22;;;;;;;7.95;3.50;;;;;;;;;;4953731;28;20054;-67
2022/03/30 06:57:52;;;;;;;8.07;3.38;;;;;;;;;;4969460;28;20066;-67
2022/03/30 07:00:22;;;;;;;8.13;3.10;;;;;;;;;;4991625;28;20058;-67
2022/03/30 07:02:53;;;;;;;13.25;3.25;;;;;;;;;;5011668;28;20069;-67
2022/03/30 07:05:24;;;;;;;6.13;3.10;;;;;;;;;;5012403;28;20065;-66
2022/03/30 07:10:43;;;;;;;6.90;3.97;;;;;;;;;;4982751;28;20536;-67
2022/03/30 07:13:13;;;;;;;7.15;3.10;;;;;;;;;;5031796;28;20049;-67
2022/03/30 07:15:44;;;;;;;6.53;3.30;;;;;;;;;;5031955;28;20118;-67
2022/03/30 07:18:15;;;;;;;5.68;2.92;;;;;;;;;;4982841;28;20064;-67
2022/03/30 07:20:45;;;;;;;6.72;3.15;;;;;;;;;;4998825;28;20054;-67
2022/03/30 07:23:16;;;;;;;6.32;2.92;;;;;;;;;;5019147;28;20054;-67
2022/03/30 07:25:47;;;;;;;12.27;3.38;;;;;;;;;;4980100;28;20049;-67
2022/03/30 07:28:18;;;;;;;7.22;2.88;;;;;;;;;;5012178;28;20061;-67
2022/03/30 07:30:49;;;;;;;7.95;3.08;;;;;;;;;;5012048;28;20037;-67
2022/03/30 07:33:23;;;;;;;5.97;3.20;;;;;;;;;;5011525;28;20076;-67
2022/03/30 07:35:54;;;;;;;10.52;3.22;;;;;;;;;;5011564;28;20085;-67
2022/03/30 07:38:25;;;;;;;8.13;3.10;;;;;;;;;;5011563;28;20045;-68
2022/03/30 07:41:00;;;;;;;5.80;2.65;;;;;;;;;;5011591;28;20046;-67
2022/03/30 07:43:30;;;;;;;4.32;2.72;;;;;;;;;;5011452;28;20053;-67
2022/03/30 07:46:02;;;;;;;7.03;3.30;;;;;;;;;;5025151;28;20057;-67
2022/03/30 07:48:32;;;;;;;7.95;3.17;;;;;;;;;;5011091;28;20046;-67
2022/03/30 07:51:03;;;;;;;5.38;2.83;;;;;;;;;;4994688;28;20053;-67
2022/03/30 07:53:34;;;;;;;8.20;3.22;;;;;;;;;;5011294;28;20054;-67
2022/03/30 07:56:05;;;;;;;8.68;3.10;;;;;;;;;;5011241;28;20045;-67
2022/03/30 07:58:35;;;;;;;7.75;3.28;;;;;;;;;;5011104;28;20045;-68
2022/03/30 08:01:05;;;;;;;7.78;3.10;;;;;;;;;;5010905;28;20046;-67
2022/03/30 08:03:37;;;;;;;6.07;2.80;;;;;;;;;;5027179;28;20506;-68
2022/03/30 08:06:08;;;;;;;4.97;2.78;;;;;;;;;;5010971;28;20058;-67
2022/03/30 08:08:40;;;;;;;5.97;3.25;;;;;;;;;;4978421;28;20676;-68
2022/03/30 08:11:10;;;;;;;5.85;3.33;;;;;;;;;;4978296;28;20050;-68
2022/03/30 08:13:41;;;;;;;5.07;2.90;;;;;;;;;;5010555;28;20053;-68
2022/03/30 08:16:12;;;;;;;8.63;3.08;;;;;;;;;;5010880;28;20054;-68
2022/03/30 08:18:43;;;;;;;8.63;3.70;;;;;;;;;;5010682;28;20076;-68
2022/03/30 08:24:02;;;;;;;6.50;3.45;;;;;;;;;;5010598;28;20086;-68
2022/03/30 08:26:33;;;;;;;8.02;4.35;;;;;;;;;;5022953;28;20421;-68
2022/03/30 08:29:05;;;;;;;7.18;3.20;;;;;;;;;;5030393;28;20049;-68
2022/03/30 08:31:53;;;;;;;7.18;3.60;;;;;;;;;;4977615;28;20125;-68
2022/03/30 08:34:44;;;;;;;8.25;3.60;;;;;;;;;;5010356;28;20054;-68
2022/03/30 08:37:16;;;;;;;7.20;3.83;;;;;;;;;;5010378;28;20054;-68
2022/03/30 08:39:53;;;;;;;6.72;3.38;;;;;;;;;;4991320;28;20066;-68
2022/03/30 08:42:23;;;;;;;7.60;3.40;;;;;;;;;;4990573;28;20100;-68
2022/03/30 08:44:54;;;;;;;6.88;3.65;;;;;;;;;;4990791;28;20494;-68
2022/03/30 08:47:25;;;;;;;9.35;3.17;;;;;;;;;;4990620;28;20061;-68
2022/03/30 08:49:56;;;;;;;6.78;3.03;;;;;;;;;;4990571;28;20058;-68
2022/03/30 08:52:26;;;;;;;6.68;3.65;;;;;;;;;;5028818;28;20080;-68
2022/03/30 08:54:59;;;;;;;9.25;3.40;;;;;;;;;;5029640;28;20073;-68
2022/03/30 08:57:30;;;;;;;7.85;3.58;;;;;;;;;;5009528;28;20062;-68
2022/03/30 09:00:20;;;;;;;7.43;3.30;;;;;;;;;;4970592;28;20058;-68
2022/03/30 09:03:01;;;;;;;11.68;3.90;;;;;;;;;;4931689;29;20567;-68
2022/03/30 09:05:37;;;;;;;7.53;3.63;;;;;;;;;;4932429;29;20531;-68
2022/03/30 09:08:18;;;;;;;9.02;4.55;;;;;;;;;;4951592;29;20055;-68
2022/03/30 09:10:55;;;;;;;9.90;4.13;;;;;;;;;;4904863;29;20065;-68
2022/03/30 09:13:26;;;;;;;8.95;4.00;;;;;;;;;;4951584;28;20061;-68
2022/03/30 09:15:57;;;;;;;8.98;4.60;;;;;;;;;;4933375;29;20067;-68
2022/03/30 09:18:28;;;;;;;10.05;4.53;;;;;;;;;;4964157;28;20456;-69
2022/03/30 09:20:59;;;;;;;6.88;3.88;;;;;;;;;;4932137;29;20524;-68
2022/03/30 09:23:32;;;;;;;7.22;3.40;;;;;;;;;;4915989;29;20055;-68
2022/03/30 09:26:03;;;;;;;7.60;3.03;;;;;;;;;;4931833;29;20047;-69
2022/03/30 09:28:35;;;;;;;7.47;2.83;;;;;;;;;;4916246;29;20161;-69
2022/03/30 09:31:06;;;;;;;5.95;2.95;;;;;;;;;;4931985;29;20055;-68
2022/03/30 09:33:38;;;;;;;5.65;2.80;;;;;;;;;;4930403;29;20207;-68
2022/03/30 09:36:30;;;;;;;12.00;2.83;;;;;;;;;;4912893;29;20068;-68
2022/03/30 09:39:03;;;;;;;5.45;3.03;;;;;;;;;;4951223;29;20058;-69
2022/03/30 09:41:50;;;;;;;6.32;2.92;;;;;;;;;;5003009;28;20057;-68
2022/03/30 09:44:21;;;;;;;6.32;2.53;;;;;;;;;;5005269;28;20066;-68
2022/03/30 09:47:03;;;;;;;5.78;2.90;;;;;;;;;;5010828;28;20052;-70
2022/03/30 09:49:39;;;;;;;5.80;2.70;;;;;;;;;;5028995;28;20054;-81
2022/03/30 09:52:24;;;;;;;4.70;2.50;;;;;;;;;;5027114;28;20057;-78
2022/03/30 09:54:57;;;;;;;4.60;2.33;;;;;;;;;;5031442;28;20037;-75
2022/03/30 09:57:29;;;;;;;5.57;2.40;;;;;;;;;;5029201;28;20055;-70
2022/03/30 10:00:08;;;;;;;4.88;2.22;;;;;;;;;;5027929;28;20056;-74
2022/03/30 10:02:41;;;;;;;5.97;2.38;;;;;;;;;;5006357;28;20057;-69
2022/03/30 10:05:18;;;;;;;5.10;2.10;;;;;;;;;;4994464;28;20057;-75
2022/03/30 10:07:51;;;;;;;5.18;2.08;;;;;;;;;;4960623;28;20441;-70
2022/03/30 10:10:21;;;;;;;4.28;1.77;;;;;;;;;;4977328;28;20049;-69
2022/03/30 10:12:52;;;;;;;5.93;1.63;;;;;;;;;;5011088;28;20050;-66
2022/03/30 10:15:23;;;;;;;3.38;1.63;;;;;;;;;;4986458;28;20053;-68
2022/03/30 10:17:54;;;;;;;7.30;1.52;;;;;;;;;;5008880;28;20046;-65
2022/03/30 10:20:29;;;;;;;7.32;1.60;;;;;;;;;;5010169;28;20049;-62
2022/03/30 10:23:20;;;;;;;8.25;2.35;;;;;;;;;;5009847;28;20799;-66
2022/03/30 10:26:03;;;;;;;3.50;1.73;;;;;;;;;;5023991;28;20504;-73
2022/03/30 10:29:16;;;;;;;5.70;1.98;;;;;;;;;;5022767;28;20053;-68
2022/03/30 10:32:12;;;;;;;3.75;1.52;;;;;;;;;;4942691;28;20052;-69
2022/03/30 10:35:05;;;;;;;4.40;1.50;;;;;;;;;;4970402;28;20094;-66
2022/03/30 10:37:42;;;;;;;3.97;1.60;;;;;;;;;;4958506;28;20051;-72
2022/03/30 10:40:23;;;;;;;3.20;1.30;;;;;;;;;;4966383;28;20050;-70
2022/03/30 10:42:54;;;;;;;5.32;1.30;;;;;;;;;;4948515;28;20055;-67
2022/03/30 10:45:34;;;;;;;6.78;1.58;;;;;;;;;;4960148;28;20463;-67
2022/03/30 10:48:18;;;;;;;3.78;1.40;;;;;;;;;;4969559;28;20554;-67
2022/03/30 10:51:00;;;;;;;4.47;1.60;;;;;;;;;;4963064;28;20046;-69
2022/03/30 10:53:38;;;;;;;3.72;1.10;;;;;;;;;;4924929;28;20530;-69
2022/03/30 10:56:13;;;;;;;3.47;1.20;;;;;;;;;;4925347;28;20054;-69
2022/03/30 10:58:50;;;;;;;1.83;1.00;;;;;;;;;;4925200;28;20055;-69
2022/03/30 11:01:29;;;;;;;4.25;1.50;;;;;;;;;;4956088;28;20069;-69
2022/03/30 11:04:13;;;;;;;2.83;1.20;;;;;;;;;;4953424;29;20081;-69
2022/03/30 11:06:46;;;;;;;4.53;1.60;;;;;;;;;;4963868;28;20055;-69
2022/03/30 11:09:32;;;;;;;4.63;1.65;;;;;;;;;;4915221;29;20052;-69
2022/03/30 11:12:07;;;;;;;3.88;1.60;;;;;;;;;;4915527;29;20056;-69
2022/03/30 11:14:43;;;;;;;3.80;1.48;;;;;;;;;;4928243;29;20055;-69
2022/03/30 11:17:16;;;;;;;4.10;1.40;;;;;;;;;;4963188;28;20058;-69
2022/03/30 11:19:50;;;;;;;4.47;1.52;;;;;;;;;;4994916;28;20038;-70
2022/03/30 11:22:29;;;;;;;8.32;2.50;;;;;;;;;;5000934;28;20055;-70
2022/03/30 11:41:18;;;;;;;0.50;0.20;;;;;;;;;;4972580;27;3668589;-66
2022/03/30 11:46:38;;;;;;;1.30;0.50;;;;;;;;;;5073350;28;20153;-66
2022/03/30 11:49:08;;;;;;;5.43;2.75;;;;;;;;;;5089152;28;20058;-68
2022/03/30 11:51:39;;;;;;;1.45;0.60;;;;;;;;;;5053497;28;20052;-72
2022/03/30 11:54:11;;;;;;;1.67;0.80;;;;;;;;;;5029134;28;20052;-66
2022/03/30 11:56:42;;;;;;;2.08;1.02;;;;;;;;;;5046531;28;20061;-67
2022/03/30 11:59:13;;;;;;;3.75;1.00;;;;;;;;;;5046416;28;20064;-65
2022/03/30 12:01:44;;;;;;;5.95;2.30;;;;;;;;;;5013553;28;20408;-68
2022/03/30 12:04:15;;;;;;;9.52;3.83;;;;;;;;;;5013332;28;20120;-65
2022/03/30 12:06:51;;;;;;;2.83;1.20;;;;;;;;;;5029558;28;20053;-68
2022/03/30 12:09:21;;;;;;;2.40;0.52;;;;;;;;;;5029926;28;20092;-67
2022/03/30 12:11:52;;;;;;;1.40;0.88;;;;;;;;;;5046147;28;20620;-65
2022/03/30 12:14:28;;;;;;;3.13;1.10;;;;;;;;;;5013862;28;20496;-66
2022/03/30 12:17:01;;;;;;;1.20;0.57;;;;;;;;;;5045957;28;20061;-68
2022/03/30 12:19:31;;;;;;;2.65;1.13;;;;;;;;;;5046074;28;20073;-65
2022/03/30 12:22:06;;;;;;;3.35;1.35;;;;;;;;;;5046185;28;20045;-65
2022/03/30 12:24:37;;;;;;;1.35;0.70;;;;;;;;;;5045940;28;20057;-65
2022/03/30 12:27:07;;;;;;;1.85;0.70;;;;;;;;;;5046280;28;20041;-66
2022/03/30 12:29:39;;;;;;;2.97;0.77;;;;;;;;;;4977387;28;20060;-66
2022/03/30 12:32:11;;;;;;;6.68;1.13;;;;;;;;;;5039022;28;20423;-66
2022/03/30 12:34:46;;;;;;;3.22;1.80;;;;;;;;;;5009225;28;20057;-66
2022/03/30 12:37:22;;;;;;;12.60;7.18;;;;;;;;;;5026135;28;20046;-66
2022/03/30 12:39:53;;;;;;;4.30;2.00;;;;;;;;;;5009478;28;20049;-66
2022/03/30 12:42:26;;;;;;;4.97;1.70;;;;;;;;;;5042088;28;20162;-67
2022/03/30 12:45:02;;;;;;;1.60;1.30;;;;;;;;;;5009806;28;20448;-67
2022/03/30 12:47:35;;;;;;;5.43;1.20;;;;;;;;;;5025858;28;20049;-66
2022/03/30 12:50:11;;;;;;;0.88;0.40;;;;;;;;;;5025448;28;20064;-67
2022/03/30 12:52:52;;;;;;;1.90;0.93;;;;;;;;;;4972863;28;20419;-67
2022/03/30 12:55:34;;;;;;;2.90;2.25;;;;;;;;;;4957285;28;20055;-66
2022/03/30 12:58:14;;;;;;;6.13;2.58;;;;;;;;;;4973536;28;20094;-67
2022/03/30 13:00:56;;;;;;;3.70;1.95;;;;;;;;;;4973303;28;20530;-66
2022/03/30 13:03:31;;;;;;;2.72;1.40;;;;;;;;;;4973323;28;20043;-67
2022/03/30 13:06:18;;;;;;;2.45;1.10;;;;;;;;;;4910513;28;20055;-67
2022/03/30 13:09:12;;;;;;;3.95;2.95;;;;;;;;;;4954016;28;20062;-66
2022/03/30 13:11:44;;;;;;;3.75;2.10;;;;;;;;;;4901062;29;20056;-66
2022/03/30 13:14:21;;;;;;;4.88;2.10;;;;;;;;;;4915369;29;20052;-67
2022/03/30 13:16:57;;;;;;;3.55;1.73;;;;;;;;;;4896342;29;20049;-66
2022/03/30 13:19:27;;;;;;;2.85;1.08;;;;;;;;;;4901763;29;20060;-66
2022/03/30 13:21:58;;;;;;;2.38;0.65;;;;;;;;;;4884146;29;20063;-66
2022/03/30 13:24:33;;;;;;;3.63;1.35;;;;;;;;;;4915599;29;20541;-66
2022/03/30 13:27:07;;;;;;;1.67;1.13;;;;;;;;;;4935496;29;20055;-66
2022/03/30 13:29:38;;;;;;;2.83;1.48;;;;;;;;;;4887359;29;20462;-66
2022/03/30 13:32:08;;;;;;;2.28;1.30;;;;;;;;;;4934098;29;20055;-66
2022/03/30 13:34:39;;;;;;;3.40;1.70;;;;;;;;;;4902821;29;20054;-66
2022/03/30 13:37:10;;;;;;;3.10;1.00;;;;;;;;;;4934299;29;20055;-66
2022/03/30 13:39:41;;;;;;;2.35;0.93;;;;;;;;;;4934048;29;20047;-66
2022/03/30 13:42:12;;;;;;;5.60;3.67;;;;;;;;;;4933758;29;20047;-66
2022/03/30 13:44:42;;;;;;;11.40;7.60;;;;;;;;;;4934180;29;20070;-65
2022/03/30 13:47:14;;;;;;;3.38;1.95;;;;;;;;;;4902179;29;20055;-66
2022/03/30 13:49:46;;;;;;;2.55;1.27;;;;;;;;;;4934457;28;20057;-66
2022/03/30 13:52:17;;;;;;;1.73;0.60;;;;;;;;;;4959443;28;20050;-65
2022/03/30 13:54:49;;;;;;;3.50;1.65;;;;;;;;;;4955469;28;20053;-65
2022/03/30 13:57:19;;;;;;;2.55;0.80;;;;;;;;;;4962729;28;20046;-66
2022/03/30 13:59:50;;;;;;;2.00;0.88;;;;;;;;;;5011305;28;20053;-66
2022/03/30 14:02:20;;;;;;;2.88;0.88;;;;;;;;;;4978265;28;20081;-68
2022/03/30 14:04:51;;;;;;;3.53;1.50;;;;;;;;;;5011068;28;20058;-70
2022/03/30 14:07:22;;;;;;;3.15;1.95;;;;;;;;;;4978316;28;20069;-71
2022/03/30 14:09:53;;;;;;;3.05;0.70;;;;;;;;;;5011154;28;20046;-71
2022/03/30 14:12:27;;;;;;;1.98;1.05;;;;;;;;;;4978613;28;20054;-70
2022/03/30 14:14:58;;;;;;;1.42;0.90;;;;;;;;;;5011128;28;20049;-68
2022/03/30 14:17:28;;;;;;;0.73;0.50;;;;;;;;;;5021643;28;20061;-66
2022/03/30 14:19:59;;;;;;;3.63;0.85;;;;;;;;;;4991293;28;20051;-67
2022/03/30 14:22:30;;;;;;;1.77;0.60;;;;;;;;;;4991368;28;20580;-69
2022/03/30 14:25:01;;;;;;;1.20;1.10;;;;;;;;;;5002904;28;20452;-67
2022/03/30 14:27:31;;;;;;;1.25;1.13;;;;;;;;;;4990880;28;20541;-67
2022/03/30 14:30:02;;;;;;;1.95;0.85;;;;;;;;;;4991342;28;20085;-66
2022/03/30 14:32:33;;;;;;;2.13;1.02;;;;;;;;;;4942648;28;20050;-67
2022/03/30 14:35:06;;;;;;;3.03;0.70;;;;;;;;;;4990992;28;20402;-66
2022/03/30 14:37:42;;;;;;;3.03;0.75;;;;;;;;;;4975968;28;20050;-66
2022/03/30 14:40:13;;;;;;;2.63;0.80;;;;;;;;;;4993224;28;20058;-68
2022/03/30 14:42:44;;;;;;;2.75;0.60;;;;;;;;;;4962264;28;20202;-64
2022/03/30 14:45:15;;;;;;;1.85;0.90;;;;;;;;;;4977794;28;20065;-64
2022/03/30 14:47:46;;;;;;;3.28;1.40;;;;;;;;;;5010470;28;20076;-66
2022/03/30 14:50:17;;;;;;;1.15;0.40;;;;;;;;;;5010638;28;20425;-66
2022/03/30 14:52:48;;;;;;;0.88;0.77;;;;;;;;;;4994148;28;20062;-66
2022/03/30 14:55:19;;;;;;;1.80;0.57;;;;;;;;;;5010247;28;20042;-66
2022/03/30 14:57:52;;;;;;;1.77;0.40;;;;;;;;;;5021766;28;20057;-66
2022/03/30 15:00:22;;;;;;;5.18;0.45;;;;;;;;;;5029929;28;20444;-66
2022/03/30 15:02:53;;;;;;;1.27;0.50;;;;;;;;;;5013402;28;20058;-66
2022/03/30 15:05:25;;;;;;;0.98;0.57;;;;;;;;;;5009279;28;20504;-67
2022/03/30 15:07:56;;;;;;;0.93;0.43;;;;;;;;;;5051985;28;20389;-66
2022/03/30 15:10:26;;;;;;;3.00;0.82;;;;;;;;;;5052087;28;20037;-65
2022/03/30 15:12:57;;;;;;;1.90;0.40;;;;;;;;;;5050071;28;20068;-66
2022/03/30 15:15:28;;;;;;;1.38;0.90;;;;;;;;;;5049988;28;20071;-66
2022/03/30 15:17:59;;;;;;;1.13;0.70;;;;;;;;;;5051873;28;20045;-67
2022/03/30 15:20:29;;;;;;;5.20;2.67;;;;;;;;;;5049374;28;20554;-67
2022/03/30 15:23:01;;;;;;;9.23;6.65;;;;;;;;;;5049595;28;20415;-67
2022/03/30 15:25:33;;;;;;;3.80;0.50;;;;;;;;;;5032981;28;20049;-66
2022/03/30 15:28:06;;;;;;;0.38;0.30;;;;;;;;;;5049539;28;20045;-67
2022/03/30 15:30:36;;;;;;;1.00;0.40;;;;;;;;;;5016481;28;20053;-66
2022/03/30 15:33:07;;;;;;;1.42;0.65;;;;;;;;;;5029191;28;20112;-65
2022/03/30 15:35:40;;;;;;;1.88;0.77;;;;;;;;;;5029716;28;20072;-66
2022/03/30 15:38:11;;;;;;;1.42;0.80;;;;;;;;;;5029334;28;20086;-67